Medi Baltimore — ICLW — position and weather

sailwx.info

Track history (hours):
 
Tides and Currents Weather Stations Pressure Air Temp Water Temp Dewpoint Dewpoint Depression Visibility Wind Speed Wind Dir Waves Ship Positions

Medi Baltimore

Last reported at 2014-Nov-24 16:33 UTC. Time now 2014-Dec-18 07:26 UTC.
Position N 01°11' E 103°49'.
Warning: this ship's position is 23 days out of date.

Length 225 m; draft 12 m.

Type: Cargo ship. MMSI: 247255300.

Date/timePositionNaut miles runAvg speedWind from/ knotsBaromVisibWave heightAir tempDewpointWater temp
2014-Nov-24 16:33N 01°11' E 103°49'10 9.8
2014-Nov-24 15:33N 01°17' E 103°57'0 0.1
2014-Nov-24 14:33N 01°17' E 103°57'0 0.1
2014-Nov-24 13:27N 01°17' E 103°57'0 0.2
2014-Nov-24 12:33N 01°17' E 103°57'0 0.0
2014-Nov-24 11:18N 01°17' E 103°57'0 0.0
2014-Nov-24 10:33N 01°17' E 103°57'0 0.1
2014-Nov-24 09:15N 01°17' E 103°58'0 0.1
2014-Nov-24 08:24N 01°17' E 103°57'0 0.0
2014-Nov-24 06:33N 01°17' E 103°57'0 0.1
2014-Nov-24 04:27N 01°17' E 103°57'0 0.0
2014-Nov-24 03:34N 01°17' E 103°57'1 1.3
2014-Nov-24 02:33N 01°15' E 103°57'5 5.3
2014-Nov-24 01:33N 01°16' E 104°02'5 4.6
2014-Nov-24 00:32N 01°17' E 104°07'  
Track history (hours):
 
Tides and Currents Weather Stations Pressure Air Temp Water Temp Dewpoint Dewpoint Depression Visibility Wind Speed Wind Dir Waves Ship Positions

Medi Baltimore

Last reported at 2014-Nov-24 16:33 UTC. Time now 2014-Dec-18 07:26 UTC.
Position N 01°11' E 103°49'.
Warning: this ship's position is 23 days out of date.

Length 225 m; draft 12 m.

Type: Cargo ship. MMSI: 247255300.

Date/timePositionNaut miles runAvg speedWind from/ knotsBaromVisibWave heightAir tempDewpointWater temp
2014-Nov-24 16:33N 01°11' E 103°49'10 9.8
2014-Nov-24 15:33N 01°17' E 103°57'0 0.1
2014-Nov-24 14:33N 01°17' E 103°57'0 0.1
2014-Nov-24 13:27N 01°17' E 103°57'0 0.2
2014-Nov-24 12:33N 01°17' E 103°57'0 0.0
2014-Nov-24 11:18N 01°17' E 103°57'0 0.0
2014-Nov-24 10:33N 01°17' E 103°57'0 0.1
2014-Nov-24 09:15N 01°17' E 103°58'0 0.1
2014-Nov-24 08:24N 01°17' E 103°57'0 0.0
2014-Nov-24 06:33N 01°17' E 103°57'0 0.1
2014-Nov-24 04:27N 01°17' E 103°57'0 0.0
2014-Nov-24 03:34N 01°17' E 103°57'1 1.3
2014-Nov-24 02:33N 01°15' E 103°57'5 5.3
2014-Nov-24 01:33N 01°16' E 104°02'5 4.6
2014-Nov-24 00:32N 01°17' E 104°07'  

Dump ship's entire track history